Huntersville, WV

4:18 AM EDT on September 20, 2014 (GMT -0400)
RAWS MARLINTON WV US | Change Station
CLOSE
Current Station
Personal Weather Station
Location: Marlinton, WV
Elevation: 3082 ft
Nearby Weather Stations

Elev 3082 ft 38.22 °N, 80.04 °W | Updated 148 days ago

Mostly Cloudy
Mostly Cloudy
55 °F
Feels Like 55 °F
N
4
Wind Variable Wind from SSE
Gusts 8 mph

Today
High -- | Low -- °F
--% Chance of Precip.
Yesterday
High -- | Low -- °F
Precip. -- in
7:06 AM 7:20 PM
Waning Crescent, 14% visible
Pressure 30.32 in
Visibility 2.0 miles
Clouds Overcast 200 ft
Dew Point 54 °F
Humidity 94%
Rainfall 0.00 in
Snow Depth Not available.
UV 0 out of 12
Pollen 4.00 out of 12
Air Quality Not available.
Flu Activity Not available.
METAR KHSP 200755Z AUTO 16007KT 2SM BR OVC002 11/10 A3032 RMK AO2 VIS 1V5 T01110096

More Conditions Fewer Conditions

Pressure 30.32 in
Visibility 2.0 miles
Clouds Overcast 200 ft
Dew Point 54 °F
Humidity 94%
Rainfall 0.00 in
Snow Depth Not available.
UV 0 out of 12
Pollen 4.00 out of 12
Air Quality Not available.
Flu Activity Not available.
METAR KHSP 200755Z AUTO 16007KT 2SM BR OVC002 11/10 A3032 RMK AO2 VIS 1V5 T01110096

More Conditions Fewer Conditions

10-Day Weather Forecast

Almanac

Astronomy

Sep. 20, 2014 Rise Set
Actual Time 7:06 AM EDT 7:20 PM EDT
Civil Twilight 6:39 AM EDT 7:46 PM EDT
Nautical Twilight 6:08 AM EDT 8:17 PM EDT
Astronomical Twilight 5:37 AM EDT 8:48 PM EDT
Moon 3:46 AM EDT 5:20 PM EDT
Length of Visible Light 13h 06m
Length of Day
12h 14m
Tomorrow will be 2m 26s shorter.
Waning Crescent, 14% of the Moon is Illuminated
Today
Waning Crescent
Sep 24
New
Oct 1
First Quarter
Oct 8
Full
Oct 15
Last Quarter

Today's Extremes

State Highs State Lows

Community

WunderPhotos

Upload Photos

1,754,793 photos uploaded!

WunderBlogs® & News

Nearby

Snow Depth

Station Depth Elevation
No new snow has been reported.

Earthquake Activity

City Distance Mag. Time & Date
No recent earthquake activity has been reported nearby.
Minimum magnitude displayed is 2.5.

Coastal Water Temperatures

Place Temperature
No Stations Reporting

Nearby Weather Stations